sensor_id;sensor_type;location;lat;lon;timestamp;temperature;humidity
24176;DHT22;12324;48.146;11.502;2024-03-06T15:54:30;8.80;99.90
24176;DHT22;12324;48.146;11.502;2024-03-06T15:56:57;4.80;99.90
24176;DHT22;12324;48.146;11.502;2024-03-06T15:59:24;4.70;99.90
24176;DHT22;12324;48.146;11.502;2024-03-06T16:01:55;4.70;99.90
24176;DHT22;12324;48.146;11.502;2024-03-06T16:04:22;4.70;99.90
24176;DHT22;12324;48.146;11.502;2024-03-06T16:06:49;4.70;99.90
24176;DHT22;12324;48.146;11.502;2024-03-06T16:09:16;4.80;99.90
24176;DHT22;12324;48.146;11.502;2024-03-06T16:11:44;4.80;99.90
24176;DHT22;12324;48.146;11.502;2024-03-06T16:14:11;4.80;99.90
24176;DHT22;12324;48.146;11.502;2024-03-06T16:16:41;4.80;99.90
24176;DHT22;12324;48.146;11.502;2024-03-06T16:19:08;4.80;99.90
24176;DHT22;12324;48.146;11.502;2024-03-06T16:21:35;4.80;99.90
24176;DHT22;12324;48.146;11.502;2024-03-06T16:24:04;4.80;99.90
24176;DHT22;12324;48.146;11.502;2024-03-06T19:31:43;4.80;99.90
24176;DHT22;12324;48.146;11.502;2024-03-06T19:34:10;4.00;99.90
24176;DHT22;12324;48.146;11.502;2024-03-06T19:36:39;4.00;99.90
24176;DHT22;12324;48.146;11.502;2024-03-06T19:39:07;4.00;99.90
24176;DHT22;12324;48.146;11.502;2024-03-06T19:41:37;4.00;99.90
24176;DHT22;12324;48.146;11.502;2024-03-06T19:44:06;4.10;99.90
24176;DHT22;12324;48.146;11.502;2024-03-06T19:46:32;4.00;99.90
24176;DHT22;12324;48.146;11.502;2024-03-06T19:49:00;4.00;99.90
24176;DHT22;12324;48.146;11.502;2024-03-06T19:51:27;4.00;99.90
24176;DHT22;12324;48.146;11.502;2024-03-06T19:53:54;4.00;99.90
24176;DHT22;12324;48.146;11.502;2024-03-06T19:56:22;3.80;99.90
24176;DHT22;12324;48.146;11.502;2024-03-06T19:58:51;3.90;99.90
24176;DHT22;12324;48.146;11.502;2024-03-06T20:01:17;3.90;99.90
24176;DHT22;12324;48.146;11.502;2024-03-06T20:03:46;3.90;99.90
24176;DHT22;12324;48.146;11.502;2024-03-06T20:06:12;3.80;99.90
24176;DHT22;12324;48.146;11.502;2024-03-06T20:08:39;3.70;99.90
24176;DHT22;12324;48.146;11.502;2024-03-06T20:11:07;3.70;99.90
24176;DHT22;12324;48.146;11.502;2024-03-06T20:13:34;3.70;99.90
24176;DHT22;12324;48.146;11.502;2024-03-06T20:16:01;3.60;99.90
24176;DHT22;12324;48.146;11.502;2024-03-06T20:18:27;3.70;99.90
24176;DHT22;12324;48.146;11.502;2024-03-06T20:20:55;3.70;99.90
24176;DHT22;12324;48.146;11.502;2024-03-06T20:23:22;3.70;99.90
24176;DHT22;12324;48.146;11.502;2024-03-06T20:25:49;3.70;99.90
24176;DHT22;12324;48.146;11.502;2024-03-06T20:28:16;3.70;99.90
24176;DHT22;12324;48.146;11.502;2024-03-06T20:30:42;3.60;99.90
24176;DHT22;12324;48.146;11.502;2024-03-06T20:33:12;3.70;99.90
24176;DHT22;12324;48.146;11.502;2024-03-06T20:35:39;3.70;99.90
24176;DHT22;12324;48.146;11.502;2024-03-06T20:38:06;3.60;99.90
24176;DHT22;12324;48.146;11.502;2024-03-06T20:40:41;3.60;99.90
24176;DHT22;12324;48.146;11.502;2024-03-06T20:43:09;3.60;99.90
24176;DHT22;12324;48.146;11.502;2024-03-06T20:45:36;3.60;99.90
24176;DHT22;12324;48.146;11.502;2024-03-06T20:48:09;3.60;99.90
24176;DHT22;12324;48.146;11.502;2024-03-06T20:50:36;3.60;99.90
24176;DHT22;12324;48.146;11.502;2024-03-06T20:53:03;3.60;99.90
24176;DHT22;12324;48.146;11.502;2024-03-06T20:55:30;3.60;99.90
24176;DHT22;12324;48.146;11.502;2024-03-06T20:57:57;3.60;99.90
24176;DHT22;12324;48.146;11.502;2024-03-06T21:00:24;3.60;99.90
24176;DHT22;12324;48.146;11.502;2024-03-06T21:02:51;3.60;99.90
24176;DHT22;12324;48.146;11.502;2024-03-06T21:05:18;3.60;99.90
24176;DHT22;12324;48.146;11.502;2024-03-06T21:07:45;3.60;99.90
24176;DHT22;12324;48.146;11.502;2024-03-06T21:44:54;3.60;99.90
24176;DHT22;12324;48.146;11.502;2024-03-06T21:47:21;3.30;99.90
24176;DHT22;12324;48.146;11.502;2024-03-06T21:49:48;3.20;99.90
24176;DHT22;12324;48.146;11.502;2024-03-06T21:52:16;3.30;99.90
24176;DHT22;12324;48.146;11.502;2024-03-06T21:54:43;3.30;99.90
24176;DHT22;12324;48.146;11.502;2024-03-06T21:57:10;3.30;99.90
24176;DHT22;12324;48.146;11.502;2024-03-06T21:59:41;3.30;99.90
24176;DHT22;12324;48.146;11.502;2024-03-06T22:02:09;3.30;99.90
24176;DHT22;12324;48.146;11.502;2024-03-06T22:04:38;3.30;99.90
24176;DHT22;12324;48.146;11.502;2024-03-06T22:07:05;3.30;99.90
24176;DHT22;12324;48.146;11.502;2024-03-06T22:09:32;3.40;99.90
24176;DHT22;12324;48.146;11.502;2024-03-06T22:12:01;3.40;99.90
24176;DHT22;12324;48.146;11.502;2024-03-06T22:14:29;3.50;99.90
24176;DHT22;12324;48.146;11.502;2024-03-06T22:16:57;3.40;99.90
24176;DHT22;12324;48.146;11.502;2024-03-06T22:19:24;3.40;99.90
24176;DHT22;12324;48.146;11.502;2024-03-06T22:21:51;3.40;99.90
24176;DHT22;12324;48.146;11.502;2024-03-06T22:24:19;3.30;99.90
24176;DHT22;12324;48.146;11.502;2024-03-06T22:26:47;3.30;99.90
24176;DHT22;12324;48.146;11.502;2024-03-06T22:29:14;3.20;99.90
24176;DHT22;12324;48.146;11.502;2024-03-06T22:31:43;3.30;99.90
24176;DHT22;12324;48.146;11.502;2024-03-06T22:34:14;3.30;99.90
24176;DHT22;12324;48.146;11.502;2024-03-06T22:36:42;3.30;99.90
24176;DHT22;12324;48.146;11.502;2024-03-06T22:39:08;3.30;99.90
24176;DHT22;12324;48.146;11.502;2024-03-06T22:41:35;3.30;99.90
24176;DHT22;12324;48.146;11.502;2024-03-06T22:44:02;3.20;99.90
24176;DHT22;12324;48.146;11.502;2024-03-06T22:46:31;3.20;99.90
24176;DHT22;12324;48.146;11.502;2024-03-06T22:49:09;3.20;99.90
24176;DHT22;12324;48.146;11.502;2024-03-06T22:51:37;3.20;99.90
24176;DHT22;12324;48.146;11.502;2024-03-06T22:54:04;3.20;99.90
24176;DHT22;12324;48.146;11.502;2024-03-06T22:56:31;3.20;99.90
24176;DHT22;12324;48.146;11.502;2024-03-06T23:11:16;3.10;99.90
24176;DHT22;12324;48.146;11.502;2024-03-06T23:13:43;3.10;99.90
24176;DHT22;12324;48.146;11.502;2024-03-06T23:16:10;3.10;99.90
24176;DHT22;12324;48.146;11.502;2024-03-06T23:18:37;3.20;99.90
24176;DHT22;12324;48.146;11.502;2024-03-06T23:21:04;3.20;99.90
24176;DHT22;12324;48.146;11.502;2024-03-06T23:23:31;3.20;99.90
24176;DHT22;12324;48.146;11.502;2024-03-06T23:25:58;3.20;99.90
24176;DHT22;12324;48.146;11.502;2024-03-06T23:28:24;3.20;99.90
24176;DHT22;12324;48.146;11.502;2024-03-06T23:30:51;3.20;99.90
24176;DHT22;12324;48.146;11.502;2024-03-06T23:33:18;3.20;99.90
24176;DHT22;12324;48.146;11.502;2024-03-06T23:35:45;3.20;99.90
24176;DHT22;12324;48.146;11.502;2024-03-06T23:38:12;3.20;99.90
24176;DHT22;12324;48.146;11.502;2024-03-06T23:40:39;3.10;99.90
24176;DHT22;12324;48.146;11.502;2024-03-06T23:43:05;3.10;99.90
24176;DHT22;12324;48.146;11.502;2024-03-06T23:45:33;3.20;99.90
24176;DHT22;12324;48.146;11.502;2024-03-06T23:48:00;3.10;99.90
24176;DHT22;12324;48.146;11.502;2024-03-06T23:50:27;3.10;99.90
24176;DHT22;12324;48.146;11.502;2024-03-06T23:52:54;3.10;99.90
24176;DHT22;12324;48.146;11.502;2024-03-06T23:55:21;3.10;99.90
24176;DHT22;12324;48.146;11.502;2024-03-06T23:57:48;3.20;99.90
